Samedan Airport LSZS

Airport Data

Name: Samedan Airport

Ident: LSZS

Lat: 46.53409958

Long: 9.884110451

Elevation: 5600 ft

IataCode: SMV

City:

Metar

2021/09/28 07:50
LSZS 280750Z 14001KT CAVOK 03/03 Q1026 RMK E TL170

Taf

Webcams

Samedan Flugplatz
Add a Webcam Url. We will unlock it as soon is possible. Thank you:
Url: Title: